Time;durP1;ratioP1;P1;durP2;ratioP2;P2;SDS_P1;SDS_P2;PMS_P1;PMS_P2;Temp;Humidity;BMP_temperature;BMP_pressure;BME280_temperature;BME280_humidity;BME280_pressure;Samples;Min_cycle;Max_cycle;Signal;HPM_P1;HPM_P2
2021/08/19 00:02:04;;;;;;;16.73;11.52;;;;;;;24.98;63.77;100334.91;4966646;28;20410;-70
2021/08/19 00:04:31;;;;;;;19.30;10.98;;;;;;;24.87;64.15;100328.28;4967991;28;20043;-72
2021/08/19 00:06:59;;;;;;;18.15;11.48;;;;;;;24.92;64.07;100328.94;4964174;28;20082;-72
2021/08/19 00:09:27;;;;;;;15.32;11.00;;;;;;;24.96;63.86;100327.81;4967945;28;20657;-72
2021/08/19 00:11:54;;;;;;;17.85;11.60;;;;;;;24.86;64.64;100327.41;4963837;28;20047;-72
2021/08/19 00:14:23;;;;;;;20.67;10.77;;;;;;;24.87;64.86;100325.56;4966474;28;20054;-72
2021/08/19 00:16:50;;;;;;;16.77;10.77;;;;;;;24.82;64.31;100330.31;4968301;28;20042;-72
2021/08/19 00:19:18;;;;;;;17.60;11.13;;;;;;;24.83;64.34;100326.66;4966058;28;20530;-72
2021/08/19 00:21:45;;;;;;;18.13;11.63;;;;;;;24.85;64.39;100330.16;4967529;28;20042;-72
2021/08/19 00:24:13;;;;;;;15.20;10.95;;;;;;;24.92;63.87;100329.81;4966569;28;20050;-72
2021/08/19 00:26:40;;;;;;;19.25;11.48;;;;;;;24.89;64.02;100342.56;4968329;28;20507;-72
2021/08/19 00:29:09;;;;;;;16.65;10.98;;;;;;;24.78;64.18;100342.22;4966835;28;20749;-71
2021/08/19 00:31:39;;;;;;;18.17;11.00;;;;;;;24.59;64.73;100340.44;4961218;28;20047;-72
2021/08/19 00:34:08;;;;;;;17.83;11.18;;;;;;;24.58;64.70;100335.09;4964554;28;20072;-71
2021/08/19 00:36:35;;;;;;;16.35;10.13;;;;;;;24.62;64.98;100332.16;4963119;28;20045;-71
2021/08/19 00:39:03;;;;;;;18.90;10.57;;;;;;;24.63;65.07;100331.22;4969618;28;20047;-73
2021/08/19 00:41:31;;;;;;;16.70;10.95;;;;;;;24.52;65.42;100322.78;4970620;28;20057;-72
2021/08/19 00:43:59;;;;;;;16.60;10.85;;;;;;;24.43;65.51;100317.81;4971313;28;20050;-72
2021/08/19 00:46:32;;;;;;;17.63;11.05;;;;;;;24.42;65.45;100326.88;4967856;28;20062;-72
2021/08/19 00:49:03;;;;;;;17.63;11.82;;;;;;;24.45;65.30;100328.56;4970626;28;20043;-71
2021/08/19 00:51:32;;;;;;;19.45;12.10;;;;;;;24.49;65.39;100327.44;4970281;28;20054;-72
2021/08/19 00:54:00;;;;;;;18.10;11.63;;;;;;;24.55;64.86;100330.72;4970896;28;20043;-72
2021/08/19 00:56:28;;;;;;;23.80;12.75;;;;;;;24.59;65.22;100334.16;4969385;28;20116;-72
2021/08/19 00:58:57;;;;;;;21.42;11.27;;;;;;;24.61;65.06;100324.16;4969583;28;20051;-71
2021/08/19 01:01:24;;;;;;;16.30;11.00;;;;;;;24.60;65.03;100327.81;4968974;28;20192;-71
2021/08/19 01:03:55;;;;;;;16.92;11.43;;;;;;;24.54;65.35;100318.19;4970545;28;20418;-72
2021/08/19 01:06:25;;;;;;;17.65;11.48;;;;;;;24.55;65.32;100327.13;4969373;28;20401;-72
2021/08/19 01:08:54;;;;;;;19.17;12.30;;;;;;;24.57;65.13;100325.25;4971137;28;20035;-72
2021/08/19 01:11:23;;;;;;;21.20;11.65;;;;;;;24.56;64.91;100321.69;4969726;28;20045;-72
2021/08/19 01:13:51;;;;;;;18.65;11.40;;;;;;;24.55;64.97;100321.75;4969958;28;20541;-72
2021/08/19 01:16:19;;;;;;;17.20;12.30;;;;;;;24.48;65.32;100323.03;4970226;28;20499;-72
2021/08/19 01:18:48;;;;;;;17.73;10.80;;;;;;;24.38;65.67;100322.56;4970070;28;20402;-71
2021/08/19 01:21:18;;;;;;;15.00;11.00;;;;;;;24.34;65.79;100321.00;4969111;28;20067;-72
2021/08/19 01:23:47;;;;;;;16.13;11.05;;;;;;;24.37;65.61;100320.81;4970405;28;20047;-72
2021/08/19 01:26:16;;;;;;;15.85;10.88;;;;;;;24.42;65.52;100324.16;4968498;28;20049;-71
2021/08/19 01:28:46;;;;;;;18.88;12.25;;;;;;;24.45;65.70;100320.47;4970582;28;20043;-72
2021/08/19 01:31:16;;;;;;;19.15;12.10;;;;;;;24.43;65.51;100315.13;4968861;28;20043;-71
2021/08/19 01:33:45;;;;;;;17.80;12.05;;;;;;;24.47;65.74;100308.66;4970540;28;20510;-72
2021/08/19 01:36:13;;;;;;;17.83;11.55;;;;;;;24.50;65.99;100318.41;4968971;28;20051;-72
2021/08/19 01:38:41;;;;;;;15.25;11.88;;;;;;;24.40;66.25;100307.19;4969797;28;20069;-72
2021/08/19 01:41:09;;;;;;;17.58;11.10;;;;;;;24.35;66.47;100308.38;4969241;28;20115;-71
2021/08/19 01:43:38;;;;;;;16.58;11.25;;;;;;;24.36;66.23;100310.97;4966949;28;20097;-71
2021/08/19 01:46:08;;;;;;;17.00;11.10;;;;;;;24.36;66.29;100305.56;4965698;28;20062;-71
2021/08/19 01:48:37;;;;;;;15.68;11.98;;;;;;;24.34;66.18;100304.81;4969891;28;20051;-71
2021/08/19 01:51:05;;;;;;;18.65;11.70;;;;;;;24.28;66.18;100309.63;4968314;28;20043;-71
2021/08/19 01:53:32;;;;;;;19.92;10.63;;;;;;;24.22;66.43;100311.63;4970333;28;20047;-72
2021/08/19 01:56:00;;;;;;;15.68;9.45;;;;;;;24.14;66.47;100305.72;4970215;28;20403;-72
2021/08/19 01:58:28;;;;;;;17.20;10.68;;;;;;;24.02;67.14;100308.13;4968359;28;20051;-72
2021/08/19 02:00:56;;;;;;;17.05;11.35;;;;;;;24.02;67.01;100308.13;4969349;28;20046;-72
2021/08/19 02:03:24;;;;;;;17.00;11.23;;;;;;;23.97;66.94;100305.63;4968719;28;20053;-72
2021/08/19 02:05:53;;;;;;;18.15;11.32;;;;;;;23.99;66.94;100308.25;4969248;28;20043;-72
2021/08/19 02:08:21;;;;;;;17.45;11.98;;;;;;;24.01;66.60;100299.16;4968691;28;20055;-72
2021/08/19 02:10:48;;;;;;;18.17;11.98;;;;;;;24.05;66.48;100305.25;4970139;28;20090;-72
2021/08/19 02:13:17;;;;;;;19.75;12.43;;;;;;;24.09;66.73;100304.19;4968498;28;20047;-72
2021/08/19 02:15:44;;;;;;;16.15;11.13;;;;;;;24.02;67.17;100300.91;4970001;28;20039;-72
2021/08/19 02:18:11;;;;;;;15.90;10.57;;;;;;;23.96;67.40;100289.53;4968455;28;20043;-72
2021/08/19 02:20:40;;;;;;;19.83;12.05;;;;;;;24.04;67.27;100300.81;4969269;28;20050;-72
2021/08/19 02:23:08;;;;;;;19.65;10.98;;;;;;;23.98;67.33;100288.50;4967239;28;20049;-72
2021/08/19 02:25:35;;;;;;;20.73;12.98;;;;;;;24.01;67.38;100292.88;4963423;28;20047;-71
2021/08/19 02:28:03;;;;;;;18.23;12.02;;;;;;;23.93;67.52;100300.44;4950571;28;20047;-71
2021/08/19 02:30:30;;;;;;;22.58;11.52;;;;;;;23.90;67.91;100297.88;4964275;28;20070;-72
2021/08/19 02:32:57;;;;;;;18.30;11.57;;;;;;;23.96;67.68;100298.47;4969244;28;20047;-71
2021/08/19 02:35:25;;;;;;;21.27;10.40;;;;;;;23.97;67.49;100293.94;4967362;28;20051;-72
2021/08/19 02:37:55;;;;;;;18.25;11.80;;;;;;;23.92;67.81;100290.59;4969232;28;20042;-71
2021/08/19 02:40:24;;;;;;;17.15;11.93;;;;;;;23.88;68.09;100294.41;4967294;28;20055;-72
2021/08/19 02:42:51;;;;;;;15.57;11.48;;;;;;;23.78;68.84;100302.91;4969317;28;20215;-72
2021/08/19 02:45:19;;;;;;;19.25;11.32;;;;;;;23.73;69.21;100299.56;4968204;28;20212;-72
2021/08/19 02:47:47;;;;;;;17.13;11.00;;;;;;;23.72;69.55;100296.91;4967570;28;20034;-72
2021/08/19 02:50:15;;;;;;;17.92;12.35;;;;;;;23.70;69.81;100302.38;4966837;28;20041;-72
2021/08/19 02:52:42;;;;;;;22.42;12.93;;;;;;;23.74;69.24;100297.75;4968995;28;20134;-72
2021/08/19 02:55:12;;;;;;;17.77;12.40;;;;;;;23.77;68.78;100298.47;4967047;28;20043;-71
2021/08/19 02:57:40;;;;;;;18.15;12.88;;;;;;;23.75;68.87;100303.06;4963686;28;20085;-71
2021/08/19 03:00:08;;;;;;;19.67;12.80;;;;;;;23.72;68.66;100303.19;4967215;28;20083;-71
2021/08/19 03:02:36;;;;;;;20.65;12.82;;;;;;;23.66;69.01;100308.88;4967297;28;20384;-71
2021/08/19 03:05:05;;;;;;;22.10;13.38;;;;;;;23.64;69.17;100302.66;4968685;28;20043;-72
2021/08/19 03:07:32;;;;;;;18.27;13.75;;;;;;;23.63;69.14;100309.00;4968873;28;20054;-72
2021/08/19 03:10:00;;;;;;;24.80;13.38;;;;;;;23.68;68.92;100307.00;4968816;28;20058;-72
2021/08/19 03:12:29;;;;;;;24.00;12.90;;;;;;;23.75;68.82;100308.47;4968853;28;20046;-72
2021/08/19 03:14:56;;;;;;;21.17;13.48;;;;;;;23.79;68.76;100304.66;4968465;28;20054;-71
2021/08/19 03:17:24;;;;;;;20.27;13.70;;;;;;;23.81;69.04;100308.16;4967317;28;20050;-71
2021/08/19 03:19:51;;;;;;;22.98;13.23;;;;;;;23.82;69.22;100314.44;4963507;28;20042;-71
2021/08/19 03:22:19;;;;;;;20.20;13.32;;;;;;;23.79;69.17;100314.56;4967544;28;20054;-72
2021/08/19 03:24:47;;;;;;;19.15;12.93;;;;;;;23.77;69.28;100314.63;4968510;28;20573;-71
2021/08/19 03:27:14;;;;;;;18.65;12.23;;;;;;;23.74;69.25;100317.47;4967257;28;20118;-72
2021/08/19 03:29:44;;;;;;;18.15;11.57;;;;;;;23.63;69.61;100317.06;4966533;28;20526;-72
2021/08/19 03:32:12;;;;;;;20.92;13.02;;;;;;;23.57;70.13;100317.34;4966928;28;20070;-72
2021/08/19 03:34:39;;;;;;;19.60;12.20;;;;;;;23.51;70.29;100323.03;4967664;28;20046;-72
2021/08/19 03:37:08;;;;;;;23.95;13.85;;;;;;;23.44;70.35;100319.69;4966966;28;20054;-72
2021/08/19 03:39:36;;;;;;;19.70;12.77;;;;;;;23.41;70.10;100325.22;4965306;28;20043;-70
2021/08/19 03:42:04;;;;;;;18.92;12.57;;;;;;;23.46;69.64;100327.72;4968139;28;20090;-72
2021/08/19 03:44:31;;;;;;;18.88;11.73;;;;;;;23.50;69.53;100326.66;4967759;28;20047;-72
2021/08/19 03:47:00;;;;;;;22.00;13.05;;;;;;;23.55;69.83;100334.56;4967556;28;20394;-71
2021/08/19 03:49:27;;;;;;;20.60;12.88;;;;;;;23.61;69.48;100345.06;4966418;28;21630;-72
2021/08/19 03:51:55;;;;;;;20.52;13.10;;;;;;;23.64;69.59;100337.69;4965332;28;20111;-71
2021/08/19 03:54:22;;;;;;;24.35;12.70;;;;;;;23.67;69.37;100340.28;4967120;28;20062;-72
2021/08/19 03:56:50;;;;;;;16.48;10.65;;;;;;;23.68;69.23;100349.25;4967708;28;20526;-71
2021/08/19 03:59:17;;;;;;;18.70;12.23;;;;;;;23.67;69.31;100352.88;4965178;28;20403;-72
2021/08/19 04:01:44;;;;;;;18.20;12.60;;;;;;;23.73;69.53;100358.88;4965372;28;20038;-72
2021/08/19 04:04:13;;;;;;;19.65;12.63;;;;;;;23.80;69.59;100352.25;4966239;28;20047;-71
2021/08/19 04:06:41;;;;;;;18.88;10.68;;;;;;;23.84;69.41;100348.47;4968131;28;20517;-72
2021/08/19 04:09:08;;;;;;;18.23;11.63;;;;;;;23.94;69.88;100340.84;4966304;28;20411;-71
2021/08/19 04:11:35;;;;;;;19.45;11.15;;;;;;;24.06;69.85;100347.47;4962235;28;20380;-70
2021/08/19 04:14:03;;;;;;;15.77;10.48;;;;;;;24.09;69.65;100356.28;4969343;28;20423;-72
2021/08/19 04:16:30;;;;;;;18.33;11.65;;;;;;;24.11;69.79;100357.09;4971347;28;20430;-72
2021/08/19 04:18:58;;;;;;;15.18;10.20;;;;;;;24.26;69.58;100357.38;4971544;28;20038;-72
2021/08/19 04:21:27;;;;;;;17.45;10.63;;;;;;;24.38;69.25;100346.00;4969017;28;20055;-71
2021/08/19 04:23:54;;;;;;;14.88;9.00;;;;;;;24.52;69.03;100344.38;4971429;28;20047;-71
2021/08/19 04:26:21;;;;;;;14.30;10.10;;;;;;;24.68;69.25;100349.03;4971020;28;20117;-72
2021/08/19 04:28:49;;;;;;;18.50;9.88;;;;;;;24.77;69.43;100357.53;4970142;28;20047;-72
2021/08/19 04:31:17;;;;;;;18.30;9.98;;;;;;;24.90;69.07;100366.81;4969629;28;20498;-71
2021/08/19 04:33:44;;;;;;;18.67;9.95;;;;;;;25.02;68.79;100365.31;4971200;28;20089;-71
2021/08/19 04:36:11;;;;;;;15.85;8.02;;;;;;;25.12;68.14;100360.34;4970073;28;20042;-72
2021/08/19 04:38:40;;;;;;;14.70;9.48;;;;;;;25.12;67.99;100361.22;4971186;28;20050;-72
2021/08/19 04:41:07;;;;;;;13.43;7.85;;;;;;;25.18;68.08;100358.22;4969406;28;20097;-72
2021/08/19 04:43:35;;;;;;;14.25;9.10;;;;;;;25.34;68.49;100359.16;4972905;28;20050;-72
2021/08/19 04:46:03;;;;;;;14.90;8.82;;;;;;;25.55;67.90;100369.81;4970486;28;20098;-72
2021/08/19 04:48:30;;;;;;;16.35;9.45;;;;;;;25.74;67.96;100368.78;4969528;28;20073;-72
2021/08/19 04:50:57;;;;;;;14.32;8.75;;;;;;;25.96;67.77;100371.22;4970160;28;20066;-73
2021/08/19 04:53:25;;;;;;;20.05;8.65;;;;;;;26.02;66.02;100370.00;4969571;28;20051;-72
2021/08/19 04:55:54;;;;;;;12.55;8.63;;;;;;;26.08;66.60;100370.56;4971447;28;20043;-72
2021/08/19 04:58:21;;;;;;;15.35;9.57;;;;;;;26.16;65.91;100365.59;4969519;28;20726;-73
2021/08/19 05:00:49;;;;;;;14.10;7.45;;;;;;;26.30;65.96;100373.00;4970281;28;20035;-72
2021/08/19 05:03:17;;;;;;;15.38;8.85;;;;;;;26.61;65.68;100373.97;4969549;28;20046;-72
2021/08/19 05:05:45;;;;;;;19.77;9.60;;;;;;;26.91;66.07;100378.53;4970736;28;20039;-72
2021/08/19 05:08:12;;;;;;;13.27;8.82;;;;;;;27.20;65.58;100378.66;4969803;28;20035;-73
2021/08/19 05:10:39;;;;;;;17.02;8.48;;;;;;;27.46;65.77;100379.81;4965031;28;20039;-71
2021/08/19 05:13:08;;;;;;;12.35;7.97;;;;;;;27.74;65.16;100377.19;4969062;28;20051;-72
2021/08/19 05:15:36;;;;;;;16.08;7.82;;;;;;;28.00;65.63;100371.03;4968270;28;20054;-71
2021/08/19 05:18:03;;;;;;;12.95;7.80;;;;;;;28.25;65.63;100370.38;4970135;28;20043;-72
2021/08/19 05:20:30;;;;;;;14.70;7.40;;;;;;;28.50;65.94;100364.22;4969617;28;20058;-72
2021/08/19 05:22:57;;;;;;;16.17;7.35;;;;;;;28.76;65.47;100373.41;4970291;28;20491;-72
2021/08/19 05:25:26;;;;;;;14.88;7.80;;;;;;;28.97;65.32;100374.72;4969583;28;20046;-72
2021/08/19 05:27:53;;;;;;;16.10;7.70;;;;;;;29.21;64.32;100375.78;4970687;28;20391;-72
2021/08/19 05:30:21;;;;;;;11.27;7.13;;;;;;;29.50;64.12;100386.56;4968124;28;20050;-73
2021/08/19 05:32:49;;;;;;;11.43;6.68;;;;;;;29.73;63.46;100377.69;4968920;28;20035;-72
2021/08/19 05:35:16;;;;;;;15.52;6.45;;;;;;;29.95;62.36;100372.50;4969431;28;20046;-73
2021/08/19 05:37:43;;;;;;;14.27;7.50;;;;;;;30.11;61.68;100380.44;4970425;28;20192;-73
2021/08/19 05:40:11;;;;;;;12.55;6.18;;;;;;;30.27;60.89;100380.19;4967341;28;20054;-72
2021/08/19 05:42:39;;;;;;;14.80;6.68;;;;;;;30.47;60.16;100382.34;4963769;28;20039;-72
2021/08/19 05:45:07;;;;;;;10.15;6.07;;;;;;;30.68;59.24;100386.25;4967720;28;20058;-71
2021/08/19 05:47:36;;;;;;;10.82;6.55;;;;;;;30.75;58.88;100386.66;4969294;28;20054;-72
2021/08/19 05:50:10;;;;;;;10.75;6.55;;;;;;;31.00;58.23;100391.16;4969352;28;20046;-72
2021/08/19 05:52:37;;;;;;;14.32;7.03;;;;;;;31.30;57.94;100388.88;4962394;28;20121;-71
2021/08/19 05:55:06;;;;;;;12.02;6.15;;;;;;;31.57;57.49;100391.34;4968249;28;20074;-72
2021/08/19 05:57:34;;;;;;;11.45;6.63;;;;;;;31.74;56.18;100392.78;4969263;28;20054;-72
2021/08/19 06:00:01;;;;;;;9.55;5.90;;;;;;;31.89;55.68;100399.78;4969129;28;20387;-72
2021/08/19 06:02:28;;;;;;;11.32;5.80;;;;;;;32.07;55.02;100401.03;4969123;28;20144;-73
2021/08/19 06:04:57;;;;;;;11.43;6.53;;;;;;;32.23;53.87;100390.63;4971309;28;20051;-73
2021/08/19 06:07:24;;;;;;;9.35;5.53;;;;;;;32.26;53.63;100393.16;4967237;28;20054;-73
2021/08/19 06:09:52;;;;;;;16.73;6.75;;;;;;;32.45;52.63;100390.66;4969642;28;20046;-73
2021/08/19 06:12:19;;;;;;;13.40;6.18;;;;;;;32.68;52.50;100396.16;4968848;28;20507;-73
2021/08/19 06:14:47;;;;;;;11.45;6.03;;;;;;;32.85;51.29;100384.66;4968539;28;20054;-72
2021/08/19 06:17:14;;;;;;;11.43;5.78;;;;;;;33.06;50.51;100395.69;4967405;28;20035;-73
2021/08/19 06:19:41;;;;;;;11.98;5.68;;;;;;;33.26;49.93;100392.19;4968309;28;20042;-73
2021/08/19 06:22:10;;;;;;;10.90;5.53;;;;;;;33.53;48.81;100384.34;4967684;28;20446;-72
2021/08/19 06:24:38;;;;;;;10.10;6.15;;;;;;;33.65;48.39;100382.41;4965025;28;20388;-72
2021/08/19 06:27:06;;;;;;;15.02;5.88;;;;;;;33.79;47.61;100383.97;4964377;28;20065;-73
2021/08/19 06:29:33;;;;;;;8.25;5.68;;;;;;;34.02;47.10;100380.06;4964625;28;20047;-73
2021/08/19 06:32:00;;;;;;;10.32;5.32;;;;;;;34.13;45.99;100379.16;4968273;28;20046;-70
2021/08/19 06:34:28;;;;;;;12.27;4.72;;;;;;;34.28;44.72;100375.91;4962306;28;20066;-71
2021/08/19 06:36:56;;;;;;;9.40;5.15;;;;;;;34.39;43.72;100384.06;4966479;28;20038;-70
2021/08/19 06:39:25;;;;;;;14.98;4.70;;;;;;;34.51;42.45;100382.09;4955270;28;20084;-71
2021/08/19 06:41:52;;;;;;;8.73;4.38;;;;;;;34.65;41.97;100380.84;4958578;28;20041;-71
2021/08/19 06:44:20;;;;;;;8.20;4.40;;;;;;;34.83;41.29;100375.56;4964666;28;20046;-73
2021/08/19 06:46:48;;;;;;;7.70;3.95;;;;;;;34.99;40.06;100382.22;4964344;28;20050;-73
2021/08/19 06:49:15;;;;;;;9.00;4.22;;;;;;;35.11;39.52;100393.97;4960972;28;20050;-75
2021/08/19 06:51:42;;;;;;;7.97;3.75;;;;;;;35.12;39.16;100392.94;4969009;28;20053;-74
2021/08/19 06:54:10;;;;;;;8.00;3.70;;;;;;;35.22;38.94;100398.47;4967290;28;20058;-74
2021/08/19 06:56:39;;;;;;;11.27;4.43;;;;;;;35.32;38.32;100396.59;4964502;28;20047;-74
2021/08/19 06:59:07;;;;;;;6.70;3.60;;;;;;;35.42;38.20;100384.63;4966785;28;20050;-72
2021/08/19 07:01:34;;;;;;;8.48;4.20;;;;;;;35.61;37.38;100393.88;4969104;28;20446;-75
2021/08/19 07:04:02;;;;;;;8.80;3.95;;;;;;;35.79;36.73;100382.00;4968180;28;20054;-74
2021/08/19 07:06:29;;;;;;;6.68;2.97;;;;;;;35.87;36.05;100400.50;4966498;28;20039;-74
2021/08/19 07:08:56;;;;;;;5.38;2.70;;;;;;;35.93;34.73;100398.03;4964271;28;20038;-74
2021/08/19 07:11:24;;;;;;;4.50;2.78;;;;;;;35.99;32.97;100399.31;4963069;28;20043;-72
2021/08/19 07:13:53;;;;;;;6.28;3.10;;;;;;;36.05;32.59;100400.59;4964195;28;20047;-72
2021/08/19 07:16:20;;;;;;;4.50;2.95;;;;;;;36.01;31.26;100393.69;4964229;28;20047;-71
2021/08/19 07:18:48;;;;;;;6.18;2.67;;;;;;;36.03;30.71;100394.41;4967201;28;20050;-71
2021/08/19 07:21:15;;;;;;;5.55;2.47;;;;;;;36.12;29.58;100393.50;4966842;28;20038;-72
2021/08/19 07:23:43;;;;;;;9.13;2.83;;;;;;;36.10;28.68;100403.81;4965883;28;20051;-73
2021/08/19 07:26:10;;;;;;;5.43;2.95;;;;;;;36.02;27.83;100390.78;4965445;28;20495;-72
2021/08/19 07:28:38;;;;;;;4.22;2.50;;;;;;;36.16;28.09;100398.56;4966320;28;20043;-70
2021/08/19 07:31:07;;;;;;;4.95;2.63;;;;;;;36.26;27.34;100390.31;4966641;28;20049;-71
2021/08/19 07:33:35;;;;;;;5.50;2.70;;;;;;;36.34;27.24;100391.31;4966575;28;20098;-71
2021/08/19 07:36:02;;;;;;;4.82;2.60;;;;;;;36.43;27.03;100395.00;4967258;28;20046;-71
2021/08/19 07:38:29;;;;;;;6.00;2.90;;;;;;;36.45;26.77;100394.88;4964996;28;20047;-71
2021/08/19 07:40:57;;;;;;;5.25;2.40;;;;;;;36.43;26.66;100403.25;4967517;28;20057;-71
2021/08/19 07:43:24;;;;;;;7.20;2.30;;;;;;;36.59;26.51;100395.25;4965381;28;20068;-71
2021/08/19 07:45:52;;;;;;;3.83;2.50;;;;;;;36.64;26.50;100398.44;4967476;28;20043;-71
2021/08/19 07:48:21;;;;;;;6.32;3.00;;;;;;;36.81;26.51;100390.38;4966576;28;20177;-71
2021/08/19 07:50:48;;;;;;;5.10;2.75;;;;;;;36.96;26.36;100386.06;4967567;28;20053;-71
2021/08/19 07:53:16;;;;;;;7.28;2.25;;;;;;;37.15;26.15;100388.75;4965707;28;20046;-71
2021/08/19 07:55:43;;;;;;;5.72;2.10;;;;;;;37.37;26.30;100392.91;4968501;28;20219;-68
2021/08/19 07:58:11;;;;;;;5.65;2.65;;;;;;;37.56;25.82;100389.97;4966791;28;20046;-69
2021/08/19 08:00:38;;;;;;;5.47;2.63;;;;;;;37.73;25.91;100388.28;4961407;28;20046;-68
2021/08/19 08:03:06;;;;;;;6.90;2.55;;;;;;;37.74;25.63;100382.63;4967061;28;20407;-69
2021/08/19 08:05:37;;;;;;;6.90;2.60;;;;;;;37.90;25.53;100388.25;4967389;28;20410;-69
2021/08/19 08:08:07;;;;;;;6.43;2.67;;;;;;;37.92;25.50;100387.22;4967756;28;20043;-70
2021/08/19 08:10:38;;;;;;;6.65;2.70;;;;;;;38.01;25.28;100394.53;4967669;28;20035;-70
2021/08/19 08:13:06;;;;;;;5.15;2.58;;;;;;;38.15;25.32;100393.94;4960511;28;20121;-69
2021/08/19 08:15:33;;;;;;;6.45;2.13;;;;;;;38.32;24.71;100386.66;4967381;28;20039;-70
2021/08/19 08:18:00;;;;;;;4.55;2.65;;;;;;;38.40;24.05;100394.97;4967415;28;20050;-69
2021/08/19 08:20:29;;;;;;;3.30;2.30;;;;;;;38.42;23.92;100393.75;4967262;28;20057;-69
2021/08/19 08:22:57;;;;;;;5.55;2.92;;;;;;;38.54;24.13;100400.75;4968118;28;20077;-70
2021/08/19 08:25:25;;;;;;;7.55;2.60;;;;;;;38.61;24.21;100392.66;4966736;28;20585;-70
2021/08/19 08:27:59;;;;;;;5.20;2.50;;;;;;;38.69;23.62;100392.72;4967858;28;20171;-70
2021/08/19 08:30:29;;;;;;;4.32;2.20;;;;;;;38.58;23.71;100382.84;4966275;28;20972;-70
2021/08/19 08:32:57;;;;;;;6.03;3.10;;;;;;;37.95;25.01;100392.38;4964045;28;20041;-72
2021/08/19 08:35:24;;;;;;;7.20;3.30;;;;;;;37.74;26.13;100392.78;4949074;28;20427;-70
2021/08/19 08:37:52;;;;;;;5.55;2.85;;;;;;;37.75;27.20;100392.59;4967467;28;20047;-69
2021/08/19 08:40:22;;;;;;;7.47;2.97;;;;;;;38.02;27.30;100387.97;4962023;28;20054;-70
2021/08/19 08:42:51;;;;;;;7.38;2.90;;;;;;;37.63;28.25;100399.38;4961558;28;20057;-70
2021/08/19 08:45:18;;;;;;;5.82;3.50;;;;;;;37.33;29.35;100403.38;4965925;28;20046;-69
2021/08/19 08:47:47;;;;;;;10.13;3.78;;;;;;;37.49;30.08;100402.66;4966235;28;20043;-69
2021/08/19 08:50:15;;;;;;;6.78;3.60;;;;;;;37.27;31.35;100411.41;4965508;28;20058;-69
2021/08/19 08:52:42;;;;;;;8.07;3.45;;;;;;;37.67;31.40;100405.47;4966453;28;20050;-70
2021/08/19 08:55:11;;;;;;;10.20;4.60;;;;;;;38.02;31.62;100408.13;4964527;28;20047;-69
2021/08/19 08:57:40;;;;;;;10.93;4.15;;;;;;;38.22;32.03;100409.69;4961180;28;20388;-69
2021/08/19 09:00:09;;;;;;;7.25;3.60;;;;;;;38.35;31.91;100412.00;4967981;28;20054;-70
2021/08/19 09:02:37;;;;;;;7.30;3.75;;;;;;;38.31;31.74;100426.28;4963895;28;20127;-70
2021/08/19 09:05:18;;;;;;;7.28;3.50;;;;;;;38.34;31.50;100414.91;4969977;28;20059;-68
2021/08/19 09:07:46;;;;;;;7.47;3.85;;;;;;;37.87;31.99;100405.13;4967889;28;20066;-69
2021/08/19 09:10:14;;;;;;;8.38;3.42;;;;;;;37.93;31.61;100406.38;4966839;28;20054;-69
2021/08/19 09:12:43;;;;;;;9.93;4.20;;;;;;;38.10;31.65;100418.41;4969380;28;20066;-69
2021/08/19 09:15:16;;;;;;;9.35;3.88;;;;;;;38.37;31.21;100417.34;4965746;28;20105;-68
2021/08/19 09:17:45;;;;;;;12.32;4.32;;;;;;;38.49;30.99;100430.75;4970310;28;20046;-69
2021/08/19 09:20:14;;;;;;;12.75;4.38;;;;;;;38.51;31.53;100423.19;4971865;28;20434;-69
2021/08/19 09:22:56;;;;;;;9.63;4.18;;;;;;;38.44;31.82;100410.16;4970388;28;20045;-69
2021/08/19 09:25:29;;;;;;;9.82;4.15;;;;;;;38.23;32.18;100418.81;4952398;28;20054;-70
2021/08/19 09:28:14;;;;;;;;;;;;;;;38.14;32.13;100415.13;4960325;28;20051;-73
2021/08/19 09:30:44;;;;;;;7.75;3.70;;;;;;;38.25;31.39;100405.75;4968894;28;19922;-74
2021/08/19 09:33:12;;;;;;;8.65;4.30;;;;;;;38.21;31.03;100409.84;4967336;28;20047;-71
2021/08/19 09:35:41;;;;;;;11.60;3.67;;;;;;;38.25;30.59;100403.00;4966558;28;20039;-70
2021/08/19 09:38:11;;;;;;;7.00;3.30;;;;;;;38.13;30.31;100401.53;4968474;28;20403;-69
2021/08/19 09:40:39;;;;;;;9.05;3.80;;;;;;;37.97;30.19;100405.00;4964172;28;20054;-69
2021/08/19 09:43:07;;;;;;;8.32;3.80;;;;;;;37.94;30.78;100407.22;4969623;28;20058;-72
2021/08/19 09:45:45;;;;;;;6.53;3.10;;;;;;;37.95;30.39;100406.19;4969862;28;20062;-73
2021/08/19 09:48:14;;;;;;;7.18;3.70;;;;;;;37.99;29.69;100410.38;4968420;28;20403;-71
2021/08/19 09:50:42;;;;;;;8.65;3.55;;;;;;;37.96;29.91;100416.19;4968439;28;20042;-71
2021/08/19 09:53:21;;;;;;;9.68;3.50;;;;;;;37.93;30.23;100416.53;4966256;28;20049;-70
2021/08/19 09:55:48;;;;;;;7.00;3.53;;;;;;;38.01;29.88;100411.06;4969600;28;20066;-73
2021/08/19 09:58:30;;;;;;;9.40;3.80;;;;;;;38.09;29.90;100403.72;4967519;28;20055;-73
2021/08/19 10:00:59;;;;;;;11.35;4.13;;;;;;;38.00;29.58;100412.09;4969259;28;20031;-71
2021/08/19 10:03:27;;;;;;;10.13;3.30;;;;;;;37.95;29.69;100409.81;4963842;28;20223;-72
2021/08/19 10:05:56;;;;;;;8.43;3.60;;;;;;;38.01;29.01;100416.59;4967088;28;20126;-73
2021/08/19 10:08:24;;;;;;;6.00;3.13;;;;;;;37.87;28.38;100416.16;4968874;28;20043;-73
2021/08/19 10:10:56;;;;;;;9.52;3.15;;;;;;;37.74;28.12;100412.06;4968420;28;20053;-72
2021/08/19 10:13:25;;;;;;;7.22;3.05;;;;;;;37.56;27.80;100412.03;4968351;28;20054;-72
2021/08/19 10:15:53;;;;;;;7.50;3.20;;;;;;;37.45;27.77;100415.03;4969474;28;20459;-72
2021/08/19 10:18:26;;;;;;;13.07;3.70;;;;;;;37.48;28.03;100412.81;4967804;28;20568;-72
2021/08/19 10:20:59;;;;;;;6.38;3.22;;;;;;;37.58;28.13;100417.44;4969478;28;20054;-73
2021/08/19 10:23:27;;;;;;;7.68;2.80;;;;;;;37.54;28.09;100424.25;4968036;28;20051;-73
2021/08/19 10:26:07;;;;;;;9.10;3.20;;;;;;;37.45;28.22;100417.78;4972449;28;20046;-73
2021/08/19 10:28:50;;;;;;;8.45;2.90;;;;;;;37.44;28.19;100413.28;4973308;28;20039;-73
2021/08/19 10:31:45;;;;;;;9.25;3.40;;;;;;;37.50;27.92;100418.19;4968227;28;20050;-72
2021/08/19 10:34:16;;;;;;;5.68;2.95;;;;;;;37.47;27.67;100419.38;4963382;28;20047;-71
2021/08/19 10:36:55;;;;;;;8.75;3.42;;;;;;;37.41;27.69;100410.88;4968441;28;20039;-73
2021/08/19 10:39:34;;;;;;;5.90;2.80;;;;;;;37.46;26.88;100416.78;4967441;28;20050;-73
2021/08/19 10:42:03;;;;;;;8.50;3.25;;;;;;;37.56;27.00;100420.28;4968910;28;20042;-72
2021/08/19 10:44:33;;;;;;;5.90;2.95;;;;;;;37.60;27.10;100412.63;4968694;28;20054;-73
2021/08/19 10:47:01;;;;;;;6.80;3.22;;;;;;;37.69;26.41;100415.28;4968021;28;20039;-72
2021/08/19 10:49:38;;;;;;;8.82;3.33;;;;;;;37.64;26.33;100406.63;4968071;28;20534;-73
2021/08/19 10:52:32;;;;;;;6.75;2.88;;;;;;;37.67;26.54;100422.88;4968087;28;20042;-72
2021/08/19 10:55:17;;;;;;;7.18;2.80;;;;;;;37.67;26.43;100414.59;4930603;28;20050;-72
2021/08/19 10:57:58;;;;;;;7.15;3.00;;;;;;;37.73;26.61;100419.47;4963076;28;20050;-73
2021/08/19 11:00:42;;;;;;;8.13;3.33;;;;;;;37.72;26.44;100414.97;4967245;28;20043;-74
2021/08/19 11:03:38;;;;;;;5.90;3.03;;;;;;;37.64;26.88;100417.66;4965139;28;20055;-69
2021/08/19 11:06:10;;;;;;;7.70;3.47;;;;;;;37.77;27.20;100417.25;4964610;28;20049;-73
2021/08/19 11:08:42;;;;;;;5.60;2.97;;;;;;;37.86;27.37;100416.31;4968602;28;20043;-73
2021/08/19 11:11:12;;;;;;;10.00;3.60;;;;;;;37.99;27.62;100437.94;4967370;28;20054;-71
2021/08/19 11:13:39;;;;;;;8.85;3.50;;;;;;;38.11;27.50;100429.28;4962860;28;20125;-69
2021/08/19 11:16:09;;;;;;;16.50;8.55;;;;;;;38.16;27.50;100429.66;4965934;28;20054;-72
2021/08/19 11:18:37;;;;;;;10.32;4.28;;;;;;;38.21;28.27;100430.00;4962724;28;20487;-73
2021/08/19 11:21:07;;;;;;;10.80;3.38;;;;;;;38.36;27.56;100429.41;4967943;28;20400;-74
2021/08/19 11:23:38;;;;;;;9.32;3.28;;;;;;;38.33;27.80;100427.88;4969073;28;20054;-74
2021/08/19 11:26:07;;;;;;;10.98;3.88;;;;;;;38.39;28.19;100429.13;4942516;28;20102;-73